sensor_id;sensor_type;location;lat;lon;timestamp;P1;durP1;ratioP1;P2;durP2;ratioP2
46927;SDS011;32668;51.306;-0.576;2022-09-09T00:00:18;15.15;;;3.75;;
46927;SDS011;32668;51.306;-0.576;2022-09-09T00:02:49;21.80;;;3.25;;
46927;SDS011;32668;51.306;-0.576;2022-09-09T00:11:32;15.07;;;3.60;;
46927;SDS011;32668;51.306;-0.576;2022-09-09T00:14:08;11.13;;;3.30;;
46927;SDS011;32668;51.306;-0.576;2022-09-09T00:16:40;17.42;;;3.88;;
46927;SDS011;32668;51.306;-0.576;2022-09-09T00:19:17;13.63;;;4.50;;
46927;SDS011;32668;51.306;-0.576;2022-09-09T00:22:00;14.50;;;3.70;;
46927;SDS011;32668;51.306;-0.576;2022-09-09T00:24:29;16.52;;;4.10;;
46927;SDS011;32668;51.306;-0.576;2022-09-09T00:27:28;14.60;;;3.58;;
46927;SDS011;32668;51.306;-0.576;2022-09-09T00:30:12;13.25;;;3.28;;
46927;SDS011;32668;51.306;-0.576;2022-09-09T00:32:44;19.00;;;3.88;;
46927;SDS011;32668;51.306;-0.576;2022-09-09T00:35:16;12.23;;;3.30;;
46927;SDS011;32668;51.306;-0.576;2022-09-09T00:38:05;18.98;;;3.35;;
46927;SDS011;32668;51.306;-0.576;2022-09-09T00:40:53;13.93;;;3.38;;
46927;SDS011;32668;51.306;-0.576;2022-09-09T00:48:50;22.65;;;4.32;;
46927;SDS011;32668;51.306;-0.576;2022-09-09T00:51:38;23.27;;;3.83;;
46927;SDS011;32668;51.306;-0.576;2022-09-09T00:59:51;13.40;;;3.67;;
46927;SDS011;32668;51.306;-0.576;2022-09-09T01:07:51;16.35;;;3.85;;
46927;SDS011;32668;51.306;-0.576;2022-09-09T01:10:50;19.92;;;4.65;;
46927;SDS011;32668;51.306;-0.576;2022-09-09T01:13:28;24.73;;;3.83;;
46927;SDS011;32668;51.306;-0.576;2022-09-09T01:15:59;22.08;;;4.32;;
46927;SDS011;32668;51.306;-0.576;2022-09-09T01:18:37;29.05;;;5.43;;
46927;SDS011;32668;51.306;-0.576;2022-09-09T01:26:42;25.05;;;4.55;;
46927;SDS011;32668;51.306;-0.576;2022-09-09T01:29:10;20.27;;;4.10;;
46927;SDS011;32668;51.306;-0.576;2022-09-09T01:34:13;24.35;;;4.00;;
46927;SDS011;32668;51.306;-0.576;2022-09-09T01:37:21;21.88;;;4.47;;
46927;SDS011;32668;51.306;-0.576;2022-09-09T01:39:35;26.60;;;5.45;;
46927;SDS011;32668;51.306;-0.576;2022-09-09T01:42:03;18.13;;;3.47;;
46927;SDS011;32668;51.306;-0.576;2022-09-09T01:44:31;35.08;;;5.72;;
46927;SDS011;32668;51.306;-0.576;2022-09-09T01:46:59;25.40;;;5.75;;
46927;SDS011;32668;51.306;-0.576;2022-09-09T01:49:24;21.67;;;4.15;;
46927;SDS011;32668;51.306;-0.576;2022-09-09T01:51:51;16.98;;;5.00;;
46927;SDS011;32668;51.306;-0.576;2022-09-09T01:54:19;22.75;;;4.25;;
46927;SDS011;32668;51.306;-0.576;2022-09-09T02:00:05;23.17;;;6.07;;
46927;SDS011;32668;51.306;-0.576;2022-09-09T02:13:28;18.13;;;4.68;;
46927;SDS011;32668;51.306;-0.576;2022-09-09T02:16:03;24.77;;;6.03;;
46927;SDS011;32668;51.306;-0.576;2022-09-09T02:18:38;15.27;;;4.15;;
46927;SDS011;32668;51.306;-0.576;2022-09-09T02:21:07;28.50;;;5.53;;
46927;SDS011;32668;51.306;-0.576;2022-09-09T02:23:36;23.25;;;5.63;;
46927;SDS011;32668;51.306;-0.576;2022-09-09T02:26:04;23.23;;;4.10;;
46927;SDS011;32668;51.306;-0.576;2022-09-09T02:28:32;15.93;;;4.88;;
46927;SDS011;32668;51.306;-0.576;2022-09-09T02:30:59;18.02;;;4.72;;
46927;SDS011;32668;51.306;-0.576;2022-09-09T02:33:27;26.60;;;4.80;;
46927;SDS011;32668;51.306;-0.576;2022-09-09T02:35:56;17.75;;;4.97;;
46927;SDS011;32668;51.306;-0.576;2022-09-09T02:38:28;20.30;;;4.50;;
46927;SDS011;32668;51.306;-0.576;2022-09-09T02:40:57;16.83;;;4.13;;
46927;SDS011;32668;51.306;-0.576;2022-09-09T02:43:23;16.52;;;3.42;;
46927;SDS011;32668;51.306;-0.576;2022-09-09T02:52:06;26.67;;;5.40;;
46927;SDS011;32668;51.306;-0.576;2022-09-09T02:54:17;14.32;;;3.83;;
46927;SDS011;32668;51.306;-0.576;2022-09-09T02:56:52;21.45;;;3.95;;
46927;SDS011;32668;51.306;-0.576;2022-09-09T02:59:19;24.05;;;4.80;;
46927;SDS011;32668;51.306;-0.576;2022-09-09T03:01:46;20.35;;;3.90;;
46927;SDS011;32668;51.306;-0.576;2022-09-09T03:04:12;13.65;;;5.35;;
46927;SDS011;32668;51.306;-0.576;2022-09-09T03:06:38;17.15;;;3.38;;
46927;SDS011;32668;51.306;-0.576;2022-09-09T03:09:03;12.45;;;3.15;;
46927;SDS011;32668;51.306;-0.576;2022-09-09T03:11:29;21.42;;;3.38;;
46927;SDS011;32668;51.306;-0.576;2022-09-09T03:13:54;12.30;;;3.88;;
46927;SDS011;32668;51.306;-0.576;2022-09-09T03:16:21;17.00;;;3.88;;
46927;SDS011;32668;51.306;-0.576;2022-09-09T03:18:47;12.13;;;3.15;;
46927;SDS011;32668;51.306;-0.576;2022-09-09T03:21:12;16.25;;;3.85;;
46927;SDS011;32668;51.306;-0.576;2022-09-09T03:23:39;15.57;;;4.00;;
46927;SDS011;32668;51.306;-0.576;2022-09-09T03:26:04;17.17;;;4.50;;
46927;SDS011;32668;51.306;-0.576;2022-09-09T03:28:30;12.15;;;3.50;;
46927;SDS011;32668;51.306;-0.576;2022-09-09T03:31:02;26.65;;;5.00;;
46927;SDS011;32668;51.306;-0.576;2022-09-09T03:33:29;12.95;;;3.50;;
46927;SDS011;32668;51.306;-0.576;2022-09-09T03:35:55;19.35;;;4.07;;
46927;SDS011;32668;51.306;-0.576;2022-09-09T03:38:21;12.13;;;3.85;;
46927;SDS011;32668;51.306;-0.576;2022-09-09T03:40:51;16.55;;;5.47;;
46927;SDS011;32668;51.306;-0.576;2022-09-09T03:43:20;10.23;;;3.67;;
46927;SDS011;32668;51.306;-0.576;2022-09-09T03:45:46;12.75;;;3.67;;
46927;SDS011;32668;51.306;-0.576;2022-09-09T03:48:13;19.85;;;4.30;;
46927;SDS011;32668;51.306;-0.576;2022-09-09T03:50:39;15.60;;;4.90;;
46927;SDS011;32668;51.306;-0.576;2022-09-09T03:53:09;15.70;;;3.88;;
46927;SDS011;32668;51.306;-0.576;2022-09-09T03:55:34;19.85;;;4.30;;
46927;SDS011;32668;51.306;-0.576;2022-09-09T03:58:00;9.80;;;3.95;;
46927;SDS011;32668;51.306;-0.576;2022-09-09T04:00:25;21.17;;;5.50;;
46927;SDS011;32668;51.306;-0.576;2022-09-09T04:02:51;20.83;;;5.47;;
46927;SDS011;32668;51.306;-0.576;2022-09-09T04:05:20;15.98;;;4.63;;
46927;SDS011;32668;51.306;-0.576;2022-09-09T04:07:46;17.05;;;4.40;;
46927;SDS011;32668;51.306;-0.576;2022-09-09T04:10:11;25.15;;;5.75;;
46927;SDS011;32668;51.306;-0.576;2022-09-09T04:12:36;18.70;;;5.28;;
46927;SDS011;32668;51.306;-0.576;2022-09-09T04:15:02;19.08;;;4.80;;
46927;SDS011;32668;51.306;-0.576;2022-09-09T04:17:27;28.83;;;6.45;;
46927;SDS011;32668;51.306;-0.576;2022-09-09T04:19:53;20.70;;;5.78;;
46927;SDS011;32668;51.306;-0.576;2022-09-09T04:22:18;20.90;;;6.03;;
46927;SDS011;32668;51.306;-0.576;2022-09-09T04:24:43;30.83;;;6.82;;
46927;SDS011;32668;51.306;-0.576;2022-09-09T04:27:09;17.30;;;6.13;;
46927;SDS011;32668;51.306;-0.576;2022-09-09T04:29:34;45.35;;;9.35;;
46927;SDS011;32668;51.306;-0.576;2022-09-09T04:32:00;20.77;;;7.85;;
46927;SDS011;32668;51.306;-0.576;2022-09-09T04:34:25;22.77;;;7.28;;
46927;SDS011;32668;51.306;-0.576;2022-09-09T04:36:51;18.45;;;7.07;;
46927;SDS011;32668;51.306;-0.576;2022-09-09T04:39:17;23.52;;;8.00;;
46927;SDS011;32668;51.306;-0.576;2022-09-09T04:41:42;20.05;;;7.55;;
46927;SDS011;32668;51.306;-0.576;2022-09-09T04:44:07;18.73;;;7.75;;
46927;SDS011;32668;51.306;-0.576;2022-09-09T04:46:33;18.58;;;6.13;;
46927;SDS011;32668;51.306;-0.576;2022-09-09T04:48:59;21.13;;;6.55;;
46927;SDS011;32668;51.306;-0.576;2022-09-09T04:51:24;23.95;;;7.80;;
46927;SDS011;32668;51.306;-0.576;2022-09-09T04:53:50;20.73;;;7.80;;
46927;SDS011;32668;51.306;-0.576;2022-09-09T04:56:16;16.77;;;6.43;;
46927;SDS011;32668;51.306;-0.576;2022-09-09T04:58:43;25.73;;;7.20;;
46927;SDS011;32668;51.306;-0.576;2022-09-09T05:01:10;24.80;;;7.63;;
46927;SDS011;32668;51.306;-0.576;2022-09-09T05:03:43;25.67;;;8.10;;
46927;SDS011;32668;51.306;-0.576;2022-09-09T05:06:11;23.58;;;7.75;;
46927;SDS011;32668;51.306;-0.576;2022-09-09T05:08:39;20.95;;;7.72;;
46927;SDS011;32668;51.306;-0.576;2022-09-09T05:11:15;17.38;;;7.85;;
46927;SDS011;32668;51.306;-0.576;2022-09-09T05:13:43;27.65;;;8.85;;
46927;SDS011;32668;51.306;-0.576;2022-09-09T05:16:09;21.67;;;8.10;;
46927;SDS011;32668;51.306;-0.576;2022-09-09T05:18:36;22.20;;;8.00;;
46927;SDS011;32668;51.306;-0.576;2022-09-09T05:21:04;30.92;;;8.25;;
46927;SDS011;32668;51.306;-0.576;2022-09-09T05:23:31;20.52;;;8.57;;
46927;SDS011;32668;51.306;-0.576;2022-09-09T05:25:58;30.23;;;8.55;;
46927;SDS011;32668;51.306;-0.576;2022-09-09T05:28:24;23.48;;;7.60;;
46927;SDS011;32668;51.306;-0.576;2022-09-09T05:31:03;23.23;;;8.07;;
46927;SDS011;32668;51.306;-0.576;2022-09-09T05:33:33;30.48;;;10.73;;
46927;SDS011;32668;51.306;-0.576;2022-09-09T05:36:00;20.02;;;7.97;;
46927;SDS011;32668;51.306;-0.576;2022-09-09T05:38:27;25.83;;;9.63;;
46927;SDS011;32668;51.306;-0.576;2022-09-09T05:40:54;27.50;;;9.23;;
46927;SDS011;32668;51.306;-0.576;2022-09-09T05:43:21;20.98;;;9.35;;
46927;SDS011;32668;51.306;-0.576;2022-09-09T05:46:03;21.08;;;8.50;;
46927;SDS011;32668;51.306;-0.576;2022-09-09T05:48:33;15.32;;;8.90;;
46927;SDS011;32668;51.306;-0.576;2022-09-09T05:51:03;27.15;;;9.73;;
46927;SDS011;32668;51.306;-0.576;2022-09-09T05:53:30;22.35;;;8.85;;
46927;SDS011;32668;51.306;-0.576;2022-09-09T05:56:05;26.10;;;9.43;;
46927;SDS011;32668;51.306;-0.576;2022-09-09T05:58:36;28.35;;;10.65;;
46927;SDS011;32668;51.306;-0.576;2022-09-09T06:01:03;23.20;;;9.77;;
46927;SDS011;32668;51.306;-0.576;2022-09-09T06:03:33;20.80;;;9.75;;
46927;SDS011;32668;51.306;-0.576;2022-09-09T06:06:00;26.58;;;9.10;;
46927;SDS011;32668;51.306;-0.576;2022-09-09T06:08:27;26.77;;;9.70;;
46927;SDS011;32668;51.306;-0.576;2022-09-09T06:10:52;20.02;;;9.90;;
46927;SDS011;32668;51.306;-0.576;2022-09-09T06:13:18;20.40;;;7.65;;
46927;SDS011;32668;51.306;-0.576;2022-09-09T06:15:52;20.08;;;8.20;;
46927;SDS011;32668;51.306;-0.576;2022-09-09T06:18:18;18.45;;;7.07;;
46927;SDS011;32668;51.306;-0.576;2022-09-09T06:21:00;18.30;;;9.15;;
46927;SDS011;32668;51.306;-0.576;2022-09-09T06:23:31;20.33;;;8.63;;
46927;SDS011;32668;51.306;-0.576;2022-09-09T06:26:31;20.20;;;7.38;;
46927;SDS011;32668;51.306;-0.576;2022-09-09T06:28:55;17.33;;;7.65;;
46927;SDS011;32668;51.306;-0.576;2022-09-09T06:31:22;16.15;;;6.97;;
46927;SDS011;32668;51.306;-0.576;2022-09-09T06:33:50;15.10;;;7.13;;
46927;SDS011;32668;51.306;-0.576;2022-09-09T06:36:21;15.48;;;6.88;;
46927;SDS011;32668;51.306;-0.576;2022-09-09T06:38:48;10.65;;;6.07;;
46927;SDS011;32668;51.306;-0.576;2022-09-09T06:41:15;28.75;;;7.80;;
46927;SDS011;32668;51.306;-0.576;2022-09-09T06:43:43;16.30;;;6.47;;
46927;SDS011;32668;51.306;-0.576;2022-09-09T06:46:16;15.40;;;5.95;;
46927;SDS011;32668;51.306;-0.576;2022-09-09T06:48:43;16.80;;;5.93;;
46927;SDS011;32668;51.306;-0.576;2022-09-09T06:51:17;12.45;;;5.22;;
46927;SDS011;32668;51.306;-0.576;2022-09-09T06:53:44;19.85;;;6.18;;
46927;SDS011;32668;51.306;-0.576;2022-09-09T06:58:39;8.68;;;4.70;;
46927;SDS011;32668;51.306;-0.576;2022-09-09T07:01:12;17.60;;;5.78;;
46927;SDS011;32668;51.306;-0.576;2022-09-09T07:03:39;15.57;;;5.82;;
46927;SDS011;32668;51.306;-0.576;2022-09-09T07:06:07;13.15;;;6.00;;
46927;SDS011;32668;51.306;-0.576;2022-09-09T07:08:34;8.93;;;4.68;;
46927;SDS011;32668;51.306;-0.576;2022-09-09T07:11:03;13.68;;;5.38;;
46927;SDS011;32668;51.306;-0.576;2022-09-09T07:13:32;9.38;;;4.68;;
46927;SDS011;32668;51.306;-0.576;2022-09-09T07:16:07;11.15;;;4.88;;
46927;SDS011;32668;51.306;-0.576;2022-09-09T07:18:34;10.63;;;4.47;;
46927;SDS011;32668;51.306;-0.576;2022-09-09T07:21:00;9.10;;;4.03;;
46927;SDS011;32668;51.306;-0.576;2022-09-09T07:23:27;5.93;;;3.92;;
46927;SDS011;32668;51.306;-0.576;2022-09-09T07:25:53;13.55;;;4.97;;
46927;SDS011;32668;51.306;-0.576;2022-09-09T07:28:21;10.80;;;5.70;;
46927;SDS011;32668;51.306;-0.576;2022-09-09T07:30:57;10.32;;;5.72;;
46927;SDS011;32668;51.306;-0.576;2022-09-09T07:33:28;13.55;;;6.75;;
46927;SDS011;32668;51.306;-0.576;2022-09-09T07:36:02;10.93;;;5.93;;
46927;SDS011;32668;51.306;-0.576;2022-09-09T07:38:43;14.35;;;5.57;;
46927;SDS011;32668;51.306;-0.576;2022-09-09T07:41:13;10.02;;;5.07;;
46927;SDS011;32668;51.306;-0.576;2022-09-09T07:43:41;10.32;;;5.15;;
46927;SDS011;32668;51.306;-0.576;2022-09-09T07:46:08;9.68;;;5.50;;
46927;SDS011;32668;51.306;-0.576;2022-09-09T07:48:35;12.00;;;6.28;;
46927;SDS011;32668;51.306;-0.576;2022-09-09T07:53:35;10.98;;;5.88;;
46927;SDS011;32668;51.306;-0.576;2022-09-09T07:56:09;9.52;;;5.18;;
46927;SDS011;32668;51.306;-0.576;2022-09-09T07:58:36;10.73;;;5.70;;
46927;SDS011;32668;51.306;-0.576;2022-09-09T08:01:09;16.13;;;7.60;;
46927;SDS011;32668;51.306;-0.576;2022-09-09T08:03:56;17.95;;;7.45;;
46927;SDS011;32668;51.306;-0.576;2022-09-09T08:06:24;16.80;;;7.38;;
46927;SDS011;32668;51.306;-0.576;2022-09-09T08:08:51;18.63;;;6.97;;
46927;SDS011;32668;51.306;-0.576;2022-09-09T08:11:16;12.52;;;7.25;;
46927;SDS011;32668;51.306;-0.576;2022-09-09T08:13:42;16.73;;;7.75;;
46927;SDS011;32668;51.306;-0.576;2022-09-09T08:16:10;11.63;;;7.35;;
46927;SDS011;32668;51.306;-0.576;2022-09-09T08:18:40;16.55;;;7.43;;
46927;SDS011;32668;51.306;-0.576;2022-09-09T08:23:37;13.90;;;8.07;;
46927;SDS011;32668;51.306;-0.576;2022-09-09T08:26:10;15.38;;;8.32;;
46927;SDS011;32668;51.306;-0.576;2022-09-09T08:28:40;20.83;;;11.30;;
46927;SDS011;32668;51.306;-0.576;2022-09-09T08:31:07;28.30;;;11.10;;
46927;SDS011;32668;51.306;-0.576;2022-09-09T08:33:41;21.90;;;10.52;;
46927;SDS011;32668;51.306;-0.576;2022-09-09T08:36:10;20.10;;;9.85;;
46927;SDS011;32668;51.306;-0.576;2022-09-09T08:38:40;24.13;;;10.80;;
46927;SDS011;32668;51.306;-0.576;2022-09-09T08:41:30;25.27;;;9.88;;
46927;SDS011;32668;51.306;-0.576;2022-09-09T08:44:07;29.65;;;10.77;;
46927;SDS011;32668;51.306;-0.576;2022-09-09T08:52:29;17.17;;;9.73;;
46927;SDS011;32668;51.306;-0.576;2022-09-09T08:54:56;20.05;;;9.90;;
46927;SDS011;32668;51.306;-0.576;2022-09-09T08:57:28;21.90;;;9.98;;
46927;SDS011;32668;51.306;-0.576;2022-09-09T08:59:56;18.05;;;10.48;;
46927;SDS011;32668;51.306;-0.576;2022-09-09T09:07:40;17.50;;;7.80;;
46927;SDS011;32668;51.306;-0.576;2022-09-09T09:12:44;13.10;;;7.25;;
46927;SDS011;32668;51.306;-0.576;2022-09-09T09:15:23;18.80;;;7.50;;
46927;SDS011;32668;51.306;-0.576;2022-09-09T09:17:51;14.73;;;7.35;;
46927;SDS011;32668;51.306;-0.576;2022-09-09T09:20:17;18.50;;;7.65;;
46927;SDS011;32668;51.306;-0.576;2022-09-09T09:22:49;13.73;;;7.15;;
46927;SDS011;32668;51.306;-0.576;2022-09-09T09:28:03;10.60;;;4.65;;
46927;SDS011;32668;51.306;-0.576;2022-09-09T09:30:38;11.75;;;4.75;;
46927;SDS011;32668;51.306;-0.576;2022-09-09T09:33:24;11.05;;;4.35;;
46927;SDS011;32668;51.306;-0.576;2022-09-09T09:35:52;10.88;;;4.20;;
46927;SDS011;32668;51.306;-0.576;2022-09-09T09:38:19;11.98;;;3.67;;
46927;SDS011;32668;51.306;-0.576;2022-09-09T09:40:51;5.82;;;3.03;;
46927;SDS011;32668;51.306;-0.576;2022-09-09T09:43:35;16.40;;;3.17;;
46927;SDS011;32668;51.306;-0.576;2022-09-09T09:46:05;7.93;;;2.67;;
46927;SDS011;32668;51.306;-0.576;2022-09-09T09:48:42;11.77;;;3.42;;
46927;SDS011;32668;51.306;-0.576;2022-09-09T09:51:09;12.00;;;2.90;;
46927;SDS011;32668;51.306;-0.576;2022-09-09T09:53:40;5.05;;;2.42;;
46927;SDS011;32668;51.306;-0.576;2022-09-09T09:56:06;14.98;;;4.97;;
46927;SDS011;32668;51.306;-0.576;2022-09-09T10:01:22;8.82;;;2.83;;
46927;SDS011;32668;51.306;-0.576;2022-09-09T10:03:50;5.53;;;2.38;;
46927;SDS011;32668;51.306;-0.576;2022-09-09T10:06:17;9.55;;;2.63;;
46927;SDS011;32668;51.306;-0.576;2022-09-09T10:08:58;5.35;;;1.70;;
46927;SDS011;32668;51.306;-0.576;2022-09-09T10:11:35;8.20;;;2.15;;
46927;SDS011;32668;51.306;-0.576;2022-09-09T10:14:39;4.60;;;1.70;;
46927;SDS011;32668;51.306;-0.576;2022-09-09T10:17:15;4.18;;;1.58;;
46927;SDS011;32668;51.306;-0.576;2022-09-09T10:20:06;9.20;;;2.00;;
46927;SDS011;32668;51.306;-0.576;2022-09-09T10:22:36;7.88;;;2.08;;
46927;SDS011;32668;51.306;-0.576;2022-09-09T10:25:19;6.80;;;1.85;;
46927;SDS011;32668;51.306;-0.576;2022-09-09T10:38:45;9.98;;;2.17;;
46927;SDS011;32668;51.306;-0.576;2022-09-09T10:41:17;5.10;;;1.90;;
46927;SDS011;32668;51.306;-0.576;2022-09-09T10:54:58;5.68;;;1.27;;
46927;SDS011;32668;51.306;-0.576;2022-09-09T10:57:36;11.93;;;2.35;;
46927;SDS011;32668;51.306;-0.576;2022-09-09T11:00:10;2.08;;;1.15;;
46927;SDS011;32668;51.306;-0.576;2022-09-09T11:02:39;4.25;;;1.17;;
46927;SDS011;32668;51.306;-0.576;2022-09-09T11:05:10;3.10;;;0.88;;
46927;SDS011;32668;51.306;-0.576;2022-09-09T11:07:52;5.07;;;1.10;;
46927;SDS011;32668;51.306;-0.576;2022-09-09T11:16:16;8.70;;;1.40;;
46927;SDS011;32668;51.306;-0.576;2022-09-09T11:18:56;5.75;;;1.25;;
46927;SDS011;32668;51.306;-0.576;2022-09-09T11:21:30;6.95;;;1.30;;
46927;SDS011;32668;51.306;-0.576;2022-09-09T11:24:04;5.03;;;1.30;;
46927;SDS011;32668;51.306;-0.576;2022-09-09T11:26:39;7.10;;;1.25;;
46927;SDS011;32668;51.306;-0.576;2022-09-09T11:34:42;4.63;;;1.02;;
46927;SDS011;32668;51.306;-0.576;2022-09-09T11:42:47;2.65;;;1.30;;
46927;SDS011;32668;51.306;-0.576;2022-09-09T11:45:23;4.50;;;0.98;;
46927;SDS011;32668;51.306;-0.576;2022-09-09T11:47:55;3.28;;;1.10;;
46927;SDS011;32668;51.306;-0.576;2022-09-09T11:52:50;2.97;;;1.00;;
46927;SDS011;32668;51.306;-0.576;2022-09-09T11:55:25;3.08;;;1.10;;
46927;SDS011;32668;51.306;-0.576;2022-09-09T11:58:04;7.18;;;1.35;;
46927;SDS011;32668;51.306;-0.576;2022-09-09T12:00:43;6.03;;;1.75;;
46927;SDS011;32668;51.306;-0.576;2022-09-09T12:06:09;7.68;;;1.80;;
46927;SDS011;32668;51.306;-0.576;2022-09-09T12:08:35;8.80;;;2.20;;
46927;SDS011;32668;51.306;-0.576;2022-09-09T12:11:02;4.18;;;1.73;;
46927;SDS011;32668;51.306;-0.576;2022-09-09T12:13:30;6.55;;;2.10;;
46927;SDS011;32668;51.306;-0.576;2022-09-09T12:15:57;5.55;;;2.35;;
46927;SDS011;32668;51.306;-0.576;2022-09-09T12:20:57;6.65;;;1.85;;
46927;SDS011;32668;51.306;-0.576;2022-09-09T12:31:36;6.32;;;2.00;;
46927;SDS011;32668;51.306;-0.576;2022-09-09T12:34:10;9.20;;;1.90;;
46927;SDS011;32668;51.306;-0.576;2022-09-09T12:36:36;4.72;;;1.42;;
46927;SDS011;32668;51.306;-0.576;2022-09-09T12:39:18;3.47;;;1.42;;
46927;SDS011;32668;51.306;-0.576;2022-09-09T12:41:54;5.57;;;1.55;;
46927;SDS011;32668;51.306;-0.576;2022-09-09T12:44:22;3.92;;;1.40;;
46927;SDS011;32668;51.306;-0.576;2022-09-09T12:46:49;4.40;;;1.70;;
46927;SDS011;32668;51.306;-0.576;2022-09-09T12:51:53;5.00;;;1.45;;
46927;SDS011;32668;51.306;-0.576;2022-09-09T12:54:20;5.78;;;1.60;;
46927;SDS011;32668;51.306;-0.576;2022-09-09T12:56:46;3.42;;;1.30;;
46927;SDS011;32668;51.306;-0.576;2022-09-09T12:59:23;5.13;;;1.10;;
46927;SDS011;32668;51.306;-0.576;2022-09-09T13:01:57;4.05;;;1.02;;
46927;SDS011;32668;51.306;-0.576;2022-09-09T13:04:23;4.35;;;1.10;;
46927;SDS011;32668;51.306;-0.576;2022-09-09T13:06:49;2.80;;;1.23;;
46927;SDS011;32668;51.306;-0.576;2022-09-09T13:09:14;1.88;;;0.98;;
46927;SDS011;32668;51.306;-0.576;2022-09-09T13:11:48;6.45;;;1.50;;
46927;SDS011;32668;51.306;-0.576;2022-09-09T13:14:21;3.03;;;1.05;;
46927;SDS011;32668;51.306;-0.576;2022-09-09T13:16:57;3.63;;;1.10;;
46927;SDS011;32668;51.306;-0.576;2022-09-09T13:19:24;3.40;;;1.20;;
46927;SDS011;32668;51.306;-0.576;2022-09-09T13:21:53;2.70;;;0.93;;
46927;SDS011;32668;51.306;-0.576;2022-09-09T13:27:04;2.88;;;0.75;;
46927;SDS011;32668;51.306;-0.576;2022-09-09T13:29:52;3.22;;;0.77;;
46927;SDS011;32668;51.306;-0.576;2022-09-09T13:32:22;6.10;;;0.75;;
46927;SDS011;32668;51.306;-0.576;2022-09-09T13:34:53;8.05;;;1.38;;
46927;SDS011;32668;51.306;-0.576;2022-09-09T13:40:06;2.58;;;0.70;;
46927;SDS011;32668;51.306;-0.576;2022-09-09T13:42:41;2.38;;;0.82;;
46927;SDS011;32668;51.306;-0.576;2022-09-09T13:45:28;2.55;;;0.60;;
46927;SDS011;32668;51.306;-0.576;2022-09-09T13:47:53;4.97;;;0.80;;
46927;SDS011;32668;51.306;-0.576;2022-09-09T13:50:30;2.95;;;0.60;;
46927;SDS011;32668;51.306;-0.576;2022-09-09T13:52:57;3.92;;;0.70;;
46927;SDS011;32668;51.306;-0.576;2022-09-09T13:55:24;2.83;;;0.65;;
46927;SDS011;32668;51.306;-0.576;2022-09-09T13:57:52;2.45;;;0.65;;
46927;SDS011;32668;51.306;-0.576;2022-09-09T14:00:19;3.55;;;0.90;;
46927;SDS011;32668;51.306;-0.576;2022-09-09T14:02:44;4.53;;;0.73;;
46927;SDS011;32668;51.306;-0.576;2022-09-09T14:05:10;4.40;;;0.88;;
46927;SDS011;32668;51.306;-0.576;2022-09-09T14:07:36;1.98;;;0.68;;
46927;SDS011;32668;51.306;-0.576;2022-09-09T14:10:03;2.17;;;0.65;;
46927;SDS011;32668;51.306;-0.576;2022-09-09T14:12:30;4.13;;;0.73;;
46927;SDS011;32668;51.306;-0.576;2022-09-09T14:14:55;3.42;;;0.90;;
46927;SDS011;32668;51.306;-0.576;2022-09-09T14:17:20;3.22;;;0.85;;
46927;SDS011;32668;51.306;-0.576;2022-09-09T14:19:47;3.67;;;0.90;;
46927;SDS011;32668;51.306;-0.576;2022-09-09T14:22:12;2.55;;;0.85;;
46927;SDS011;32668;51.306;-0.576;2022-09-09T14:24:38;7.55;;;1.20;;
46927;SDS011;32668;51.306;-0.576;2022-09-09T14:27:03;5.75;;;1.00;;
46927;SDS011;32668;51.306;-0.576;2022-09-09T14:29:28;1.67;;;0.75;;
46927;SDS011;32668;51.306;-0.576;2022-09-09T14:31:54;2.97;;;1.20;;
46927;SDS011;32668;51.306;-0.576;2022-09-09T14:34:19;3.20;;;1.10;;
46927;SDS011;32668;51.306;-0.576;2022-09-09T14:36:45;6.63;;;1.35;;
46927;SDS011;32668;51.306;-0.576;2022-09-09T14:39:10;1.58;;;0.80;;
46927;SDS011;32668;51.306;-0.576;2022-09-09T14:41:36;2.60;;;1.00;;
46927;SDS011;32668;51.306;-0.576;2022-09-09T14:44:01;4.47;;;1.20;;
46927;SDS011;32668;51.306;-0.576;2022-09-09T14:46:27;5.88;;;1.08;;
46927;SDS011;32668;51.306;-0.576;2022-09-09T14:48:52;2.28;;;0.88;;
46927;SDS011;32668;51.306;-0.576;2022-09-09T14:51:19;5.47;;;0.80;;
46927;SDS011;32668;51.306;-0.576;2022-09-09T14:53:48;2.25;;;1.50;;
46927;SDS011;32668;51.306;-0.576;2022-09-09T14:56:18;7.93;;;0.90;;
46927;SDS011;32668;51.306;-0.576;2022-09-09T14:58:47;2.58;;;0.90;;
46927;SDS011;32668;51.306;-0.576;2022-09-09T15:01:14;4.47;;;0.90;;
46927;SDS011;32668;51.306;-0.576;2022-09-09T15:03:42;3.05;;;0.77;;
46927;SDS011;32668;51.306;-0.576;2022-09-09T15:06:13;2.88;;;0.82;;
46927;SDS011;32668;51.306;-0.576;2022-09-09T15:08:42;2.88;;;0.90;;
46927;SDS011;32668;51.306;-0.576;2022-09-09T15:11:09;3.45;;;0.80;;
46927;SDS011;32668;51.306;-0.576;2022-09-09T15:13:37;1.95;;;0.88;;
46927;SDS011;32668;51.306;-0.576;2022-09-09T15:16:04;1.95;;;0.80;;
46927;SDS011;32668;51.306;-0.576;2022-09-09T15:18:31;4.45;;;0.90;;
46927;SDS011;32668;51.306;-0.576;2022-09-09T15:20:58;1.95;;;0.70;;
46927;SDS011;32668;51.306;-0.576;2022-09-09T15:23:25;3.45;;;0.68;;
46927;SDS011;32668;51.306;-0.576;2022-09-09T15:25:51;2.08;;;1.15;;
46927;SDS011;32668;51.306;-0.576;2022-09-09T15:28:18;2.97;;;0.88;;
46927;SDS011;32668;51.306;-0.576;2022-09-09T15:30:43;1.48;;;0.50;;
46927;SDS011;32668;51.306;-0.576;2022-09-09T15:33:12;1.63;;;0.77;;
46927;SDS011;32668;51.306;-0.576;2022-09-09T15:35:37;2.05;;;0.70;;
46927;SDS011;32668;51.306;-0.576;2022-09-09T15:38:03;3.85;;;0.70;;
46927;SDS011;32668;51.306;-0.576;2022-09-09T15:40:30;1.17;;;0.82;;
46927;SDS011;32668;51.306;-0.576;2022-09-09T15:42:57;2.40;;;0.63;;
46927;SDS011;32668;51.306;-0.576;2022-09-09T15:45:23;2.25;;;0.60;;
46927;SDS011;32668;51.306;-0.576;2022-09-09T15:47:48;2.10;;;0.60;;
46927;SDS011;32668;51.306;-0.576;2022-09-09T15:50:14;10.77;;;3.50;;
46927;SDS011;32668;51.306;-0.576;2022-09-09T15:52:39;1.77;;;0.52;;
46927;SDS011;32668;51.306;-0.576;2022-09-09T15:55:04;1.77;;;0.65;;
46927;SDS011;32668;51.306;-0.576;2022-09-09T15:57:30;5.63;;;1.00;;
46927;SDS011;32668;51.306;-0.576;2022-09-09T15:59:56;1.10;;;0.50;;
46927;SDS011;32668;51.306;-0.576;2022-09-09T16:02:22;1.42;;;0.70;;
46927;SDS011;32668;51.306;-0.576;2022-09-09T16:04:47;3.45;;;0.60;;
46927;SDS011;32668;51.306;-0.576;2022-09-09T16:07:12;5.55;;;0.73;;
46927;SDS011;32668;51.306;-0.576;2022-09-09T16:09:38;2.92;;;0.55;;
46927;SDS011;32668;51.306;-0.576;2022-09-09T16:12:04;1.52;;;0.47;;
46927;SDS011;32668;51.306;-0.576;2022-09-09T16:14:36;2.38;;;0.90;;
46927;SDS011;32668;51.306;-0.576;2022-09-09T16:17:03;1.98;;;0.85;;
46927;SDS011;32668;51.306;-0.576;2022-09-09T16:19:31;3.80;;;1.05;;
46927;SDS011;32668;51.306;-0.576;2022-09-09T16:21:57;4.20;;;0.80;;
46927;SDS011;32668;51.306;-0.576;2022-09-09T16:24:22;2.97;;;0.98;;
46927;SDS011;32668;51.306;-0.576;2022-09-09T16:26:52;2.47;;;0.75;;
46927;SDS011;32668;51.306;-0.576;2022-09-09T16:29:19;2.25;;;0.90;;
46927;SDS011;32668;51.306;-0.576;2022-09-09T16:31:46;3.25;;;0.90;;
46927;SDS011;32668;51.306;-0.576;2022-09-09T16:34:13;3.00;;;0.85;;
46927;SDS011;32668;51.306;-0.576;2022-09-09T16:36:40;4.70;;;0.88;;
46927;SDS011;32668;51.306;-0.576;2022-09-09T16:39:09;4.60;;;0.90;;
46927;SDS011;32668;51.306;-0.576;2022-09-09T16:41:40;1.40;;;0.70;;
46927;SDS011;32668;51.306;-0.576;2022-09-09T16:44:07;2.38;;;0.68;;
46927;SDS011;32668;51.306;-0.576;2022-09-09T16:46:34;4.00;;;0.93;;
46927;SDS011;32668;51.306;-0.576;2022-09-09T16:49:04;2.10;;;0.70;;
46927;SDS011;32668;51.306;-0.576;2022-09-09T16:51:33;2.35;;;0.80;;
46927;SDS011;32668;51.306;-0.576;2022-09-09T16:54:01;7.35;;;0.90;;
46927;SDS011;32668;51.306;-0.576;2022-09-09T16:56:29;3.15;;;0.70;;
46927;SDS011;32668;51.306;-0.576;2022-09-09T16:58:59;3.58;;;0.68;;
46927;SDS011;32668;51.306;-0.576;2022-09-09T17:01:30;3.60;;;0.90;;